sensor_id;sensor_type;location;lat;lon;timestamp;pressure;altitude;pressure_sealevel;temperature;humidity
35649;BME280;21768;48.562;13.414;2022-10-30T00:00:07;97933.09;;;13.02;78.71
35649;BME280;21768;48.562;13.414;2022-10-30T00:02:33;97929.97;;;13.06;78.75
35649;BME280;21768;48.562;13.414;2022-10-30T00:04:58;97932.59;;;13.08;78.83
35649;BME280;21768;48.562;13.414;2022-10-30T00:07:23;97929.56;;;13.13;78.66
35649;BME280;21768;48.562;13.414;2022-10-30T00:09:49;97929.97;;;13.19;78.61
35649;BME280;21768;48.562;13.414;2022-10-30T00:12:14;97924.13;;;13.20;78.44
35649;BME280;21768;48.562;13.414;2022-10-30T00:14:39;97926.09;;;13.24;78.28
35649;BME280;21768;48.562;13.414;2022-10-30T00:17:05;97932.22;;;13.28;78.19
35649;BME280;21768;48.562;13.414;2022-10-30T00:19:30;97930.66;;;13.30;78.34
35649;BME280;21768;48.562;13.414;2022-10-30T00:21:55;97929.38;;;13.37;78.16
35649;BME280;21768;48.562;13.414;2022-10-30T00:24:22;97925.19;;;13.37;77.95
35649;BME280;21768;48.562;13.414;2022-10-30T00:26:47;97931.84;;;13.35;77.99
35649;BME280;21768;48.562;13.414;2022-10-30T00:29:14;97932.63;;;13.34;77.94
35649;BME280;21768;48.562;13.414;2022-10-30T00:31:40;97926.47;;;13.31;78.03
35649;BME280;21768;48.562;13.414;2022-10-30T00:34:05;97926.47;;;13.31;77.93
35649;BME280;21768;48.562;13.414;2022-10-30T00:36:30;97928.03;;;13.28;78.09
35649;BME280;21768;48.562;13.414;2022-10-30T00:38:56;97922.00;;;13.26;77.91
35649;BME280;21768;48.562;13.414;2022-10-30T00:41:22;97925.50;;;13.28;77.88
35649;BME280;21768;48.562;13.414;2022-10-30T00:43:48;97921.91;;;13.25;77.92
35649;BME280;21768;48.562;13.414;2022-10-30T00:48:50;97915.94;;;13.24;77.99
35649;BME280;21768;48.562;13.414;2022-10-30T00:51:17;97911.75;;;13.25;77.85
35649;BME280;21768;48.562;13.414;2022-10-30T00:53:43;97915.75;;;13.21;77.98
35649;BME280;21768;48.562;13.414;2022-10-30T00:56:10;97915.56;;;13.18;77.90
35649;BME280;21768;48.562;13.414;2022-10-30T00:58:49;97925.69;;;13.18;77.98
35649;BME280;21768;48.562;13.414;2022-10-30T01:01:21;97916.25;;;13.16;77.99
35649;BME280;21768;48.562;13.414;2022-10-30T01:03:51;97920.44;;;13.15;77.98
35649;BME280;21768;48.562;13.414;2022-10-30T01:06:18;97910.28;;;13.15;78.00
35649;BME280;21768;48.562;13.414;2022-10-30T01:08:44;97904.22;;;13.13;77.82
35649;BME280;21768;48.562;13.414;2022-10-30T01:11:11;97905.72;;;13.10;77.90
35649;BME280;21768;48.562;13.414;2022-10-30T01:13:37;97909.72;;;13.06;77.97
35649;BME280;21768;48.562;13.414;2022-10-30T01:27:08;97902.50;;;12.99;78.05
35649;BME280;21768;48.562;13.414;2022-10-30T01:32:14;97900.84;;;13.00;77.95
35649;BME280;21768;48.562;13.414;2022-10-30T01:40:07;97888.44;;;12.91;78.27
35649;BME280;21768;48.562;13.414;2022-10-30T01:50:23;97876.19;;;12.84;77.79
35649;BME280;21768;48.562;13.414;2022-10-30T01:53:07;97875.13;;;12.80;78.01
35649;BME280;21768;48.562;13.414;2022-10-30T01:55:47;97873.28;;;12.78;78.16
35649;BME280;21768;48.562;13.414;2022-10-30T01:58:26;97874.81;;;12.76;78.46
35649;BME280;21768;48.562;13.414;2022-10-30T02:00:57;97875.59;;;12.75;78.29
35649;BME280;21768;48.562;13.414;2022-10-30T02:03:24;97874.72;;;12.74;78.45
35649;BME280;21768;48.562;13.414;2022-10-30T02:05:51;97875.50;;;12.73;78.23
35649;BME280;21768;48.562;13.414;2022-10-30T02:08:17;97870.34;;;12.72;78.18
35649;BME280;21768;48.562;13.414;2022-10-30T02:10:45;97870.13;;;12.69;78.33
35649;BME280;21768;48.562;13.414;2022-10-30T02:13:11;97875.19;;;12.69;78.30
35649;BME280;21768;48.562;13.414;2022-10-30T02:15:36;97873.44;;;12.68;78.15
35649;BME280;21768;48.562;13.414;2022-10-30T02:18:02;97872.28;;;12.63;78.24
35649;BME280;21768;48.562;13.414;2022-10-30T02:20:28;97867.13;;;12.61;78.21
35649;BME280;21768;48.562;13.414;2022-10-30T02:22:54;97869.66;;;12.61;78.21
35649;BME280;21768;48.562;13.414;2022-10-30T02:25:19;97870.44;;;12.60;78.07
35649;BME280;21768;48.562;13.414;2022-10-30T02:27:45;97867.81;;;12.58;78.21
35649;BME280;21768;48.562;13.414;2022-10-30T02:30:10;97866.94;;;12.58;78.27
35649;BME280;21768;48.562;13.414;2022-10-30T02:32:36;97865.09;;;12.55;78.24
35649;BME280;21768;48.562;13.414;2022-10-30T02:35:02;97869.38;;;12.56;78.16
35649;BME280;21768;48.562;13.414;2022-10-30T02:37:28;97864.09;;;12.53;78.21
35649;BME280;21768;48.562;13.414;2022-10-30T02:39:53;97855.72;;;12.54;78.27
35649;BME280;21768;48.562;13.414;2022-10-30T02:42:18;97862.56;;;12.55;78.10
35649;BME280;21768;48.562;13.414;2022-10-30T02:44:44;97862.75;;;12.58;78.09
35649;BME280;21768;48.562;13.414;2022-10-30T02:47:09;97856.91;;;12.59;77.98
35649;BME280;21768;48.562;13.414;2022-10-30T02:49:35;97862.84;;;12.60;78.00
35649;BME280;21768;48.562;13.414;2022-10-30T02:52:00;97857.69;;;12.58;78.12
35649;BME280;21768;48.562;13.414;2022-10-30T02:54:26;97856.03;;;12.59;78.03
35649;BME280;21768;48.562;13.414;2022-10-30T02:56:51;97852.81;;;12.62;78.17
35649;BME280;21768;48.562;13.414;2022-10-30T02:59:16;97854.56;;;12.63;78.19
35649;BME280;21768;48.562;13.414;2022-10-30T03:01:42;97845.31;;;12.63;78.35
35649;BME280;21768;48.562;13.414;2022-10-30T03:04:08;97858.94;;;12.65;78.31
35649;BME280;21768;48.562;13.414;2022-10-30T03:06:33;97850.00;;;12.70;78.20
35649;BME280;21768;48.562;13.414;2022-10-30T03:08:58;97846.78;;;12.73;78.16
35649;BME280;21768;48.562;13.414;2022-10-30T03:11:24;97846.97;;;12.76;78.12
35649;BME280;21768;48.562;13.414;2022-10-30T03:13:50;97845.22;;;12.75;78.05
35649;BME280;21768;48.562;13.414;2022-10-30T03:16:18;97845.53;;;12.79;77.93
35649;BME280;21768;48.562;13.414;2022-10-30T03:18:45;97851.56;;;12.81;77.92
35649;BME280;21768;48.562;13.414;2022-10-30T03:21:15;97856.53;;;12.80;77.87
35649;BME280;21768;48.562;13.414;2022-10-30T03:23:40;97868.22;;;12.78;77.82
35649;BME280;21768;48.562;13.414;2022-10-30T03:26:06;97863.03;;;12.76;77.61
35649;BME280;21768;48.562;13.414;2022-10-30T03:28:32;97861.97;;;12.73;77.52
35649;BME280;21768;48.562;13.414;2022-10-30T03:31:03;97866.84;;;12.70;77.57
35649;BME280;21768;48.562;13.414;2022-10-30T03:33:28;97877.63;;;12.67;77.52
35649;BME280;21768;48.562;13.414;2022-10-30T03:35:54;97875.78;;;12.65;77.36
35649;BME280;21768;48.562;13.414;2022-10-30T03:38:20;97876.38;;;12.60;77.47
35649;BME280;21768;48.562;13.414;2022-10-30T03:40:45;97869.56;;;12.59;77.31
35649;BME280;21768;48.562;13.414;2022-10-30T03:43:11;97871.13;;;12.57;77.38
35649;BME280;21768;48.562;13.414;2022-10-30T03:45:36;97873.16;;;12.50;77.36
35649;BME280;21768;48.562;13.414;2022-10-30T03:48:03;97866.03;;;12.44;77.48
35649;BME280;21768;48.562;13.414;2022-10-30T03:50:28;97863.97;;;12.39;77.62
35649;BME280;21768;48.562;13.414;2022-10-30T03:52:54;97863.59;;;12.33;77.76
35649;BME280;21768;48.562;13.414;2022-10-30T03:55:20;97863.84;;;12.24;77.85
35649;BME280;21768;48.562;13.414;2022-10-30T03:57:45;97857.72;;;12.20;78.01
35649;BME280;21768;48.562;13.414;2022-10-30T04:00:12;97859.94;;;12.16;78.14
35649;BME280;21768;48.562;13.414;2022-10-30T04:02:38;97860.53;;;12.12;78.06
35649;BME280;21768;48.562;13.414;2022-10-30T04:05:03;97856.94;;;12.08;78.16
35649;BME280;21768;48.562;13.414;2022-10-30T04:07:29;97854.09;;;12.04;78.18
35649;BME280;21768;48.562;13.414;2022-10-30T04:09:54;97855.63;;;12.02;78.58
35649;BME280;21768;48.562;13.414;2022-10-30T04:12:20;97858.25;;;12.03;78.30
35649;BME280;21768;48.562;13.414;2022-10-30T04:14:45;97853.78;;;11.99;78.30
35649;BME280;21768;48.562;13.414;2022-10-30T04:17:11;97857.97;;;11.99;78.35
35649;BME280;21768;48.562;13.414;2022-10-30T04:19:36;97856.31;;;11.99;78.30
35649;BME280;21768;48.562;13.414;2022-10-30T04:22:01;97853.47;;;11.95;78.43
35649;BME280;21768;48.562;13.414;2022-10-30T04:24:27;97859.28;;;11.93;78.35
35649;BME280;21768;48.562;13.414;2022-10-30T04:26:52;97859.75;;;11.88;78.47
35649;BME280;21768;48.562;13.414;2022-10-30T04:29:17;97855.28;;;11.84;78.68
35649;BME280;21768;48.562;13.414;2022-10-30T04:31:43;97859.38;;;11.82;78.68
35649;BME280;21768;48.562;13.414;2022-10-30T04:34:08;97854.22;;;11.80;78.56
35649;BME280;21768;48.562;13.414;2022-10-30T04:36:33;97851.22;;;11.74;78.47
35649;BME280;21768;48.562;13.414;2022-10-30T04:38:59;97854.09;;;11.67;78.63
35649;BME280;21768;48.562;13.414;2022-10-30T04:41:26;97847.50;;;11.69;78.69
35649;BME280;21768;48.562;13.414;2022-10-30T04:43:51;97854.22;;;11.69;78.69
35649;BME280;21768;48.562;13.414;2022-10-30T04:46:17;97862.47;;;11.66;78.75
35649;BME280;21768;48.562;13.414;2022-10-30T04:48:43;97854.00;;;11.66;78.86
35649;BME280;21768;48.562;13.414;2022-10-30T04:51:09;97863.94;;;11.63;78.82
35649;BME280;21768;48.562;13.414;2022-10-30T04:53:36;97864.78;;;11.63;78.88
35649;BME280;21768;48.562;13.414;2022-10-30T04:56:02;97859.72;;;11.63;78.83
35649;BME280;21768;48.562;13.414;2022-10-30T04:58:28;97859.53;;;11.60;78.63
35649;BME280;21768;48.562;13.414;2022-10-30T05:00:53;97855.81;;;11.55;78.85
35649;BME280;21768;48.562;13.414;2022-10-30T05:03:23;97853.75;;;11.49;79.12
35649;BME280;21768;48.562;13.414;2022-10-30T05:06:17;97853.41;;;11.45;79.25
35649;BME280;21768;48.562;13.414;2022-10-30T05:08:43;97856.06;;;11.46;79.39
35649;BME280;21768;48.562;13.414;2022-10-30T05:11:09;97855.38;;;11.49;79.16
35649;BME280;21768;48.562;13.414;2022-10-30T05:13:34;97854.63;;;11.50;79.14
35649;BME280;21768;48.562;13.414;2022-10-30T05:15:59;97850.56;;;11.52;78.96
35649;BME280;21768;48.562;13.414;2022-10-30T05:18:25;97853.53;;;11.46;79.15
35649;BME280;21768;48.562;13.414;2022-10-30T05:20:50;97852.53;;;11.44;79.01
35649;BME280;21768;48.562;13.414;2022-10-30T05:23:15;97850.78;;;11.43;79.25
35649;BME280;21768;48.562;13.414;2022-10-30T05:25:41;97852.66;;;11.46;79.15
35649;BME280;21768;48.562;13.414;2022-10-30T05:28:06;97851.88;;;11.47;78.99
35649;BME280;21768;48.562;13.414;2022-10-30T05:30:34;97851.09;;;11.48;79.00
35649;BME280;21768;48.562;13.414;2022-10-30T05:33:01;97851.09;;;11.48;78.84
35649;BME280;21768;48.562;13.414;2022-10-30T05:35:27;97839.13;;;11.45;78.75
35649;BME280;21768;48.562;13.414;2022-10-30T05:37:53;97837.38;;;11.44;78.60
35649;BME280;21768;48.562;13.414;2022-10-30T05:40:19;97831.25;;;11.41;78.77
35649;BME280;21768;48.562;13.414;2022-10-30T05:42:48;97832.59;;;11.36;78.90
35649;BME280;21768;48.562;13.414;2022-10-30T05:45:14;97828.09;;;11.32;78.90
35649;BME280;21768;48.562;13.414;2022-10-30T05:47:40;97835.69;;;11.32;79.07
35649;BME280;21768;48.562;13.414;2022-10-30T05:50:06;97830.63;;;11.32;78.98
35649;BME280;21768;48.562;13.414;2022-10-30T05:52:32;97834.69;;;11.30;79.14
35649;BME280;21768;48.562;13.414;2022-10-30T05:54:57;97831.50;;;11.32;79.10
35649;BME280;21768;48.562;13.414;2022-10-30T05:57:23;97835.91;;;11.35;79.19
35649;BME280;21768;48.562;13.414;2022-10-30T05:59:48;97830.25;;;11.39;78.96
35649;BME280;21768;48.562;13.414;2022-10-30T06:02:15;97828.53;;;11.38;78.96
35649;BME280;21768;48.562;13.414;2022-10-30T06:04:41;97833.66;;;11.39;79.05
35649;BME280;21768;48.562;13.414;2022-10-30T06:07:06;97831.25;;;11.41;79.15
35649;BME280;21768;48.562;13.414;2022-10-30T06:09:32;97835.63;;;11.43;79.50
35649;BME280;21768;48.562;13.414;2022-10-30T06:11:57;97834.28;;;11.48;79.10
35649;BME280;21768;48.562;13.414;2022-10-30T06:14:22;97838.78;;;11.52;78.97
35649;BME280;21768;48.562;13.414;2022-10-30T06:16:48;97837.34;;;11.56;78.83
35649;BME280;21768;48.562;13.414;2022-10-30T06:19:13;97843.50;;;11.59;78.75
35649;BME280;21768;48.562;13.414;2022-10-30T06:21:39;97846.91;;;11.60;78.57
35649;BME280;21768;48.562;13.414;2022-10-30T06:24:04;97848.66;;;11.61;78.70
35649;BME280;21768;48.562;13.414;2022-10-30T06:26:30;97849.59;;;11.63;78.32
35649;BME280;21768;48.562;13.414;2022-10-30T06:28:55;97854.88;;;11.66;78.30
35649;BME280;21768;48.562;13.414;2022-10-30T06:31:21;97851.56;;;11.67;78.29
35649;BME280;21768;48.562;13.414;2022-10-30T06:33:46;97846.72;;;11.70;78.24
35649;BME280;21768;48.562;13.414;2022-10-30T06:36:11;97839.34;;;11.73;78.10
35649;BME280;21768;48.562;13.414;2022-10-30T06:38:37;97845.41;;;11.75;78.02
35649;BME280;21768;48.562;13.414;2022-10-30T06:41:02;97847.41;;;11.79;77.98
35649;BME280;21768;48.562;13.414;2022-10-30T06:43:27;97847.41;;;11.79;78.12
35649;BME280;21768;48.562;13.414;2022-10-30T06:45:53;97849.38;;;11.83;78.02
35649;BME280;21768;48.562;13.414;2022-10-30T06:48:18;97850.63;;;11.90;77.82
35649;BME280;21768;48.562;13.414;2022-10-30T06:50:44;97848.19;;;11.91;77.70
35649;BME280;21768;48.562;13.414;2022-10-30T06:53:09;97852.59;;;11.94;77.62
35649;BME280;21768;48.562;13.414;2022-10-30T06:55:34;97853.22;;;12.03;77.58
35649;BME280;21768;48.562;13.414;2022-10-30T06:58:00;97859.56;;;12.10;77.14
35649;BME280;21768;48.562;13.414;2022-10-30T07:00:25;97851.38;;;12.14;77.27
35649;BME280;21768;48.562;13.414;2022-10-30T07:02:58;97859.16;;;12.17;77.31
35649;BME280;21768;48.562;13.414;2022-10-30T07:05:24;97861.44;;;12.25;77.17
35649;BME280;21768;48.562;13.414;2022-10-30T07:07:49;97857.88;;;12.35;77.13
35649;BME280;21768;48.562;13.414;2022-10-30T07:10:15;97859.78;;;12.39;77.04
35649;BME280;21768;48.562;13.414;2022-10-30T07:12:40;97863.91;;;12.50;77.16
35649;BME280;21768;48.562;13.414;2022-10-30T07:15:07;97856.91;;;12.59;76.99
35649;BME280;21768;48.562;13.414;2022-10-30T07:17:32;97864.50;;;12.73;76.96
35649;BME280;21768;48.562;13.414;2022-10-30T07:19:57;97854.38;;;12.86;76.75
35649;BME280;21768;48.562;13.414;2022-10-30T07:22:23;97849.41;;;13.01;76.63
35649;BME280;21768;48.562;13.414;2022-10-30T07:24:48;97850.25;;;13.14;76.46
35649;BME280;21768;48.562;13.414;2022-10-30T07:27:14;97849.78;;;13.33;76.21
35649;BME280;21768;48.562;13.414;2022-10-30T07:29:39;97847.09;;;13.45;75.80
35649;BME280;21768;48.562;13.414;2022-10-30T07:32:04;97849.84;;;13.62;75.56
35649;BME280;21768;48.562;13.414;2022-10-30T07:34:30;97858.50;;;13.79;75.21
35649;BME280;21768;48.562;13.414;2022-10-30T07:36:56;97856.84;;;13.94;74.94
35649;BME280;21768;48.562;13.414;2022-10-30T07:39:21;97858.69;;;14.12;74.29
35649;BME280;21768;48.562;13.414;2022-10-30T07:41:48;97864.88;;;14.30;74.06
35649;BME280;21768;48.562;13.414;2022-10-30T07:44:14;97857.53;;;14.49;73.80
35649;BME280;21768;48.562;13.414;2022-10-30T07:46:39;97852.53;;;14.66;73.11
35649;BME280;21768;48.562;13.414;2022-10-30T07:49:05;97850.88;;;14.81;72.81
35649;BME280;21768;48.562;13.414;2022-10-30T07:51:30;97860.28;;;14.98;71.68
35649;BME280;21768;48.562;13.414;2022-10-30T07:53:55;97850.81;;;15.26;71.16
35649;BME280;21768;48.562;13.414;2022-10-30T07:56:21;97856.50;;;15.53;70.50
35649;BME280;21768;48.562;13.414;2022-10-30T07:58:46;97859.66;;;15.80;69.37
35649;BME280;21768;48.562;13.414;2022-10-30T08:01:12;97855.03;;;16.06;68.68
35649;BME280;21768;48.562;13.414;2022-10-30T08:03:37;97856.34;;;16.31;68.16
35649;BME280;21768;48.562;13.414;2022-10-30T08:06:02;97865.31;;;16.59;67.62
35649;BME280;21768;48.562;13.414;2022-10-30T08:08:28;97855.47;;;16.83;67.26
35649;BME280;21768;48.562;13.414;2022-10-30T08:10:53;97855.69;;;17.05;66.53
35649;BME280;21768;48.562;13.414;2022-10-30T08:13:19;97857.53;;;17.45;64.93
35649;BME280;21768;48.562;13.414;2022-10-30T08:15:44;97855.16;;;18.06;63.64
35649;BME280;21768;48.562;13.414;2022-10-30T08:18:09;97851.50;;;18.81;61.82
35649;BME280;21768;48.562;13.414;2022-10-30T08:20:35;97853.59;;;19.56;59.70
35649;BME280;21768;48.562;13.414;2022-10-30T08:23:00;97848.41;;;20.25;56.80
35649;BME280;21768;48.562;13.414;2022-10-30T08:25:28;97848.16;;;20.95;54.66
35649;BME280;21768;48.562;13.414;2022-10-30T08:27:54;97848.34;;;21.86;51.82
35649;BME280;21768;48.562;13.414;2022-10-30T08:30:21;97849.31;;;22.54;50.17
35649;BME280;21768;48.562;13.414;2022-10-30T08:32:47;97844.81;;;22.79;49.42
35649;BME280;21768;48.562;13.414;2022-10-30T08:35:12;97839.59;;;22.76;48.38
35649;BME280;21768;48.562;13.414;2022-10-30T08:37:38;97839.28;;;22.63;49.61
35649;BME280;21768;48.562;13.414;2022-10-30T08:40:04;97843.13;;;22.79;49.83
35649;BME280;21768;48.562;13.414;2022-10-30T08:42:29;97844.91;;;22.82;49.49
35649;BME280;21768;48.562;13.414;2022-10-30T08:44:55;97841.78;;;22.60;49.45
35649;BME280;21768;48.562;13.414;2022-10-30T08:47:20;97841.22;;;22.39;49.78
35649;BME280;21768;48.562;13.414;2022-10-30T08:49:45;97844.00;;;22.14;50.23
35649;BME280;21768;48.562;13.414;2022-10-30T08:52:11;97845.66;;;21.82;52.48
35649;BME280;21768;48.562;13.414;2022-10-30T08:54:36;97849.81;;;21.78;51.55
35649;BME280;21768;48.562;13.414;2022-10-30T08:57:02;97834.69;;;22.50;49.95
35649;BME280;21768;48.562;13.414;2022-10-30T08:59:27;97833.59;;;23.91;46.97
35649;BME280;21768;48.562;13.414;2022-10-30T09:01:52;97827.47;;;24.81;44.41
35649;BME280;21768;48.562;13.414;2022-10-30T09:04:18;97822.75;;;25.08;43.11
35649;BME280;21768;48.562;13.414;2022-10-30T09:06:43;97826.19;;;25.07;43.01
35649;BME280;21768;48.562;13.414;2022-10-30T09:09:09;97819.47;;;25.18;43.52
35649;BME280;21768;48.562;13.414;2022-10-30T09:11:34;97824.09;;;25.42;43.65
35649;BME280;21768;48.562;13.414;2022-10-30T09:13:59;97820.03;;;25.61;42.56
35649;BME280;21768;48.562;13.414;2022-10-30T09:16:24;97823.56;;;25.66;42.12
35649;BME280;21768;48.562;13.414;2022-10-30T09:18:50;97830.66;;;25.82;41.86
35649;BME280;21768;48.562;13.414;2022-10-30T09:21:15;97817.75;;;25.85;41.68
35649;BME280;21768;48.562;13.414;2022-10-30T09:23:42;97820.34;;;25.85;42.10
35649;BME280;21768;48.562;13.414;2022-10-30T09:26:08;97823.75;;;25.81;41.94
35649;BME280;21768;48.562;13.414;2022-10-30T09:28:34;97826.88;;;25.59;40.79
35649;BME280;21768;48.562;13.414;2022-10-30T09:31:00;97818.78;;;25.31;42.84
35649;BME280;21768;48.562;13.414;2022-10-30T09:33:25;97824.69;;;25.24;42.64
35649;BME280;21768;48.562;13.414;2022-10-30T09:35:51;97825.63;;;25.29;43.17
35649;BME280;21768;48.562;13.414;2022-10-30T09:38:16;97823.66;;;25.75;42.07
35649;BME280;21768;48.562;13.414;2022-10-30T09:43:23;97821.91;;;26.53;40.70
35649;BME280;21768;48.562;13.414;2022-10-30T09:56:41;97817.81;;;25.23;43.78
35649;BME280;21768;48.562;13.414;2022-10-30T09:59:56;97821.94;;;25.11;44.10
35649;BME280;21768;48.562;13.414;2022-10-30T10:02:00;97827.19;;;25.17;44.37
35649;BME280;21768;48.562;13.414;2022-10-30T10:04:42;97822.28;;;25.35;43.95
35649;BME280;21768;48.562;13.414;2022-10-30T10:09:42;97812.81;;;26.06;43.51
35649;BME280;21768;48.562;13.414;2022-10-30T10:12:12;97810.28;;;26.09;41.98
35649;BME280;21768;48.562;13.414;2022-10-30T10:14:43;97813.78;;;26.16;42.98
35649;BME280;21768;48.562;13.414;2022-10-30T10:17:14;97817.94;;;26.02;43.30
35649;BME280;21768;48.562;13.414;2022-10-30T10:22:25;97814.47;;;26.00;42.90
35649;BME280;21768;48.562;13.414;2022-10-30T10:24:51;97808.97;;;26.51;41.53
35649;BME280;21768;48.562;13.414;2022-10-30T10:30:15;97810.94;;;26.83;40.78
35649;BME280;21768;48.562;13.414;2022-10-30T10:44:06;97804.09;;;26.88;41.46
35649;BME280;21768;48.562;13.414;2022-10-30T10:46:59;97798.88;;;26.83;41.93
35649;BME280;21768;48.562;13.414;2022-10-30T10:52:04;97793.69;;;26.82;42.79
35649;BME280;21768;48.562;13.414;2022-10-30T10:54:51;97791.88;;;26.74;42.63
35649;BME280;21768;48.562;13.414;2022-10-30T10:57:40;97785.06;;;26.86;41.67
35649;BME280;21768;48.562;13.414;2022-10-30T11:00:17;97784.28;;;26.94;42.12
35649;BME280;21768;48.562;13.414;2022-10-30T11:03:10;97778.31;;;27.03;41.09
35649;BME280;21768;48.562;13.414;2022-10-30T11:05:34;97788.03;;;27.39;41.87
35649;BME280;21768;48.562;13.414;2022-10-30T11:08:16;97785.66;;;27.92;41.17
35649;BME280;21768;48.562;13.414;2022-10-30T11:10:46;97776.22;;;28.32;39.11
35649;BME280;21768;48.562;13.414;2022-10-30T11:13:13;97772.75;;;29.06;38.01
35649;BME280;21768;48.562;13.414;2022-10-30T11:18:31;97773.78;;;30.51;35.42
35649;BME280;21768;48.562;13.414;2022-10-30T11:23:37;97766.19;;;30.22;34.92
35649;BME280;21768;48.562;13.414;2022-10-30T11:26:25;97759.44;;;29.90;36.70
35649;BME280;21768;48.562;13.414;2022-10-30T11:29:12;97759.63;;;29.48;37.02
35649;BME280;21768;48.562;13.414;2022-10-30T11:31:42;97764.88;;;29.32;36.66
35649;BME280;21768;48.562;13.414;2022-10-30T11:36:45;97749.88;;;29.94;35.58
35649;BME280;21768;48.562;13.414;2022-10-30T11:39:26;97752.06;;;30.56;35.59
35649;BME280;21768;48.562;13.414;2022-10-30T11:42:06;97750.81;;;30.95;35.62
35649;BME280;21768;48.562;13.414;2022-10-30T11:44:40;97751.41;;;31.22;34.53
35649;BME280;21768;48.562;13.414;2022-10-30T11:47:07;97743.25;;;31.51;33.73
35649;BME280;21768;48.562;13.414;2022-10-30T11:49:51;97743.22;;;31.54;33.70
35649;BME280;21768;48.562;13.414;2022-10-30T11:52:21;97738.03;;;32.17;32.73
35649;BME280;21768;48.562;13.414;2022-10-30T11:55:00;97751.44;;;33.00;31.19
35649;BME280;21768;48.562;13.414;2022-10-30T11:57:34;97745.63;;;34.13;29.13
35649;BME280;21768;48.562;13.414;2022-10-30T12:00:03;97739.16;;;34.98;28.32
35649;BME280;21768;48.562;13.414;2022-10-30T12:02:40;97743.09;;;34.82;29.42
35649;BME280;21768;48.562;13.414;2022-10-30T12:07:51;97737.38;;;35.00;28.43
35649;BME280;21768;48.562;13.414;2022-10-30T12:10:24;97728.50;;;35.66;28.08
35649;BME280;21768;48.562;13.414;2022-10-30T12:12:50;97731.31;;;35.89;27.09
35649;BME280;21768;48.562;13.414;2022-10-30T12:15:20;97733.78;;;35.94;28.25
35649;BME280;21768;48.562;13.414;2022-10-30T12:17:53;97735.06;;;36.10;27.88
35649;BME280;21768;48.562;13.414;2022-10-30T12:20:19;97727.06;;;36.66;25.65
35649;BME280;21768;48.562;13.414;2022-10-30T12:22:45;97729.28;;;36.53;26.10
35649;BME280;21768;48.562;13.414;2022-10-30T12:25:27;97729.72;;;36.13;27.81
35649;BME280;21768;48.562;13.414;2022-10-30T12:28:20;97720.00;;;35.87;27.96
35649;BME280;21768;48.562;13.414;2022-10-30T12:30:53;97723.97;;;36.00;27.43
35649;BME280;21768;48.562;13.414;2022-10-30T12:33:25;97725.72;;;34.42;29.72
35649;BME280;21768;48.562;13.414;2022-10-30T12:35:58;97719.13;;;32.55;31.59
35649;BME280;21768;48.562;13.414;2022-10-30T12:43:38;97714.34;;;32.27;32.25
35649;BME280;21768;48.562;13.414;2022-10-30T12:46:27;97709.16;;;32.76;32.00
35649;BME280;21768;48.562;13.414;2022-10-30T12:49:16;97705.38;;;33.39;31.61
35649;BME280;21768;48.562;13.414;2022-10-30T12:52:00;97704.88;;;34.00;30.50
35649;BME280;21768;48.562;13.414;2022-10-30T12:57:06;97702.31;;;34.36;29.89
35649;BME280;21768;48.562;13.414;2022-10-30T12:59:49;97693.75;;;33.51;30.44
35649;BME280;21768;48.562;13.414;2022-10-30T13:05:24;97692.63;;;29.92;35.51
35649;BME280;21768;48.562;13.414;2022-10-30T13:07:59;97688.78;;;28.68;37.39
35649;BME280;21768;48.562;13.414;2022-10-30T13:10:53;97687.91;;;27.84;38.50
35649;BME280;21768;48.562;13.414;2022-10-30T13:13:29;97681.69;;;27.19;40.89
35649;BME280;21768;48.562;13.414;2022-10-30T13:15:57;97676.22;;;26.73;43.10
35649;BME280;21768;48.562;13.414;2022-10-30T13:18:25;97676.75;;;26.27;43.64
35649;BME280;21768;48.562;13.414;2022-10-30T13:20:59;97670.41;;;25.88;44.55
35649;BME280;21768;48.562;13.414;2022-10-30T13:23:52;97670.84;;;25.51;44.08
35649;BME280;21768;48.562;13.414;2022-10-30T13:26:35;97677.41;;;25.18;44.96
35649;BME280;21768;48.562;13.414;2022-10-30T13:40:03;97663.22;;;24.30;48.21
35649;BME280;21768;48.562;13.414;2022-10-30T13:53:38;97664.16;;;23.82;50.52
35649;BME280;21768;48.562;13.414;2022-10-30T13:56:07;97663.16;;;23.74;51.16
35649;BME280;21768;48.562;13.414;2022-10-30T14:04:04;97666.63;;;23.31;52.69
35649;BME280;21768;48.562;13.414;2022-10-30T14:20:48;97669.84;;;22.41;55.32
35649;BME280;21768;48.562;13.414;2022-10-30T14:23:35;97666.03;;;22.24;56.25
35649;BME280;21768;48.562;13.414;2022-10-30T14:28:34;97666.13;;;21.94;56.95
35649;BME280;21768;48.562;13.414;2022-10-30T14:31:11;97665.84;;;21.83;57.15
35649;BME280;21768;48.562;13.414;2022-10-30T14:33:53;97669.84;;;21.72;57.54
35649;BME280;21768;48.562;13.414;2022-10-30T14:53:33;97668.88;;;20.76;59.75
35649;BME280;21768;48.562;13.414;2022-10-30T14:58:39;97662.16;;;20.51;61.04
35649;BME280;21768;48.562;13.414;2022-10-30T15:06:29;97667.06;;;20.18;61.44
35649;BME280;21768;48.562;13.414;2022-10-30T15:09:07;97671.22;;;20.14;61.84
35649;BME280;21768;48.562;13.414;2022-10-30T15:14:09;97667.91;;;19.91;62.38
35649;BME280;21768;48.562;13.414;2022-10-30T15:16:38;97659.91;;;19.82;62.54
35649;BME280;21768;48.562;13.414;2022-10-30T15:19:07;97663.94;;;19.74;63.03
35649;BME280;21768;48.562;13.414;2022-10-30T15:21:43;97658.56;;;19.66;63.15
35649;BME280;21768;48.562;13.414;2022-10-30T15:24:15;97667.81;;;19.63;62.95
35649;BME280;21768;48.562;13.414;2022-10-30T15:26:44;97661.59;;;19.55;63.11
35649;BME280;21768;48.562;13.414;2022-10-30T15:29:33;97662.84;;;19.44;62.74
35649;BME280;21768;48.562;13.414;2022-10-30T15:32:16;97671.84;;;19.32;63.30
35649;BME280;21768;48.562;13.414;2022-10-30T15:35:21;97672.28;;;19.21;63.33